Pagrindinis puslapis
METAR-TAF:

METAR-TAF

Oro uostai :

Kristianstadas, Švedija

platuma: 55-55N, ilguma: 014-05E, Aukštis: 23 m

Dabartinis oras

Ataskaita buvo paskelbta 28 minutes, ne 22:20 UTC
Vėjas 6 kt iš Rytų
Temperatūra 4°C
Drėgmė 100%
Slėgis 997 hPa
Matomumas 10 km arba daugiau

METAR: ESMK 152220Z AUTO 10006KT 9999 NCD 04/04 Q0997

Laikas: 00:48 (22:48 UTC)

Prognozė

Ataskaita buvo paskelbta 8 valandos ir 39 minutes, ne 14:09 UTC
Prognozė galioja nuo 15 metu 15 UTC su 15 metu 18 UTC
Vėjas 10 kt iš Pietvakarių
Matomumas 10 km arba daugiau
Išsisklaidę debesys ne aukštis 4000 ft
Tapsmas
nuo 15 metu 15 UTC su 15 metu 18 UTC
Vėjas 8 kt iš Pietryčių

TAF: ESMK 151409Z 1515/1518 22010KT 9999 SCT040 BECMG 1515/1518 14008KT

Orai ataskaitas ir orų prognozės (METAR, TAF).

turimą stotys yra geltonos ir raudonos taškus žemėlapyje.

Perkelti pele per norėdami pamatyti stoties vardą.

Tada spustelėkite, norėdami matyti oro stebėjimo ir prognozės.

Norėdami pakeisti žemėlapį: spustelėkite ant žalios mygtukų su juodo kryžiaus žemyn,; žalią mygtuką su brūkšneliu, jei norite nutolinti; arba žalių rodyklių gretimoms žemėlapius.


METAR-TAF: